Time;durP1;ratioP1;P1;durP2;ratioP2;P2;SDS_P1;SDS_P2;PMS_P1;PMS_P2;Temp;Humidity;BMP_temperature;BMP_pressure;BME280_temperature;BME280_humidity;BME280_pressure;Samples;Min_cycle;Max_cycle;Signal;HPM_P1;HPM_P2
2021/06/20 00:01:38;;;;;;;14.43;9.45;;;;;;;;;;5020543;28;20084;-48
2021/06/20 00:04:04;;;;;;;13.27;9.77;;;;;;;;;;5019815;28;20100;-48
2021/06/20 00:06:35;;;;;;;13.45;9.23;;;;;;;;;;5024063;28;20041;-49
2021/06/20 00:09:03;;;;;;;10.75;9.00;;;;;;;;;;5023721;28;20034;-48
2021/06/20 00:11:30;;;;;;;14.15;9.23;;;;;;;;;;5016966;28;20044;-48
2021/06/20 00:13:56;;;;;;;15.70;10.05;;;;;;;;;;5019379;28;20025;-48
2021/06/20 00:16:22;;;;;;;12.35;8.95;;;;;;;;;;5019670;28;20049;-49
2021/06/20 00:18:48;;;;;;;15.25;9.15;;;;;;;;;;5021806;28;20036;-48
2021/06/20 00:21:14;;;;;;;14.95;9.75;;;;;;;;;;5020423;28;20030;-49
2021/06/20 00:23:40;;;;;;;12.10;8.95;;;;;;;;;;5015684;28;20073;-49
2021/06/20 00:26:06;;;;;;;15.20;9.55;;;;;;;;;;5018704;28;20107;-48
2021/06/20 00:28:32;;;;;;;14.05;9.18;;;;;;;;;;5021680;28;20060;-48
2021/06/20 00:30:59;;;;;;;14.00;9.23;;;;;;;;;;5028963;28;20537;-48
2021/06/20 00:33:25;;;;;;;14.35;9.65;;;;;;;;;;5019559;28;20463;-49
2021/06/20 00:35:51;;;;;;;17.17;8.82;;;;;;;;;;5025219;28;20104;-51
2021/06/20 00:38:17;;;;;;;12.98;8.80;;;;;;;;;;5022207;28;20021;-48
2021/06/20 00:40:43;;;;;;;12.38;8.23;;;;;;;;;;5026490;28;20026;-48
2021/06/20 00:43:09;;;;;;;14.25;8.75;;;;;;;;;;5005725;28;20041;-48
2021/06/20 00:45:35;;;;;;;11.00;8.73;;;;;;;;;;5014545;28;20041;-49
2021/06/20 00:48:01;;;;;;;13.77;8.77;;;;;;;;;;5025530;28;20037;-48
2021/06/20 00:50:27;;;;;;;12.05;8.43;;;;;;;;;;5035872;28;20392;-48
2021/06/20 00:52:58;;;;;;;15.50;8.73;;;;;;;;;;5029210;28;20057;-48
2021/06/20 00:55:26;;;;;;;12.15;8.88;;;;;;;;;;5020722;28;20028;-48
2021/06/20 00:57:52;;;;;;;9.45;8.05;;;;;;;;;;5029795;28;20812;-49
2021/06/20 01:00:21;;;;;;;12.02;8.68;;;;;;;;;;5032295;28;20033;-51
2021/06/20 01:02:48;;;;;;;13.38;8.73;;;;;;;;;;5019132;28;20240;-50
2021/06/20 01:05:14;;;;;;;12.20;8.40;;;;;;;;;;5024945;28;20389;-51
2021/06/20 01:07:40;;;;;;;11.77;8.20;;;;;;;;;;5026384;28;20045;-50
2021/06/20 01:10:07;;;;;;;15.35;8.98;;;;;;;;;;5033927;28;20026;-52
2021/06/20 01:12:33;;;;;;;11.60;8.60;;;;;;;;;;5032529;28;20018;-52
2021/06/20 01:14:59;;;;;;;14.40;9.25;;;;;;;;;;5021891;28;20108;-51
2021/06/20 01:17:25;;;;;;;16.20;10.23;;;;;;;;;;5017074;28;20386;-50
2021/06/20 01:19:51;;;;;;;14.75;8.95;;;;;;;;;;5033721;28;20567;-50
2021/06/20 01:22:27;;;;;;;15.25;9.18;;;;;;;;;;5034211;28;20026;-51
2021/06/20 01:24:57;;;;;;;14.05;9.63;;;;;;;;;;5021250;28;20059;-49
2021/06/20 01:27:25;;;;;;;14.25;9.25;;;;;;;;;;5026604;28;20461;-51
2021/06/20 01:29:51;;;;;;;22.55;10.77;;;;;;;;;;5035278;28;20021;-50
2021/06/20 01:32:17;;;;;;;15.15;9.25;;;;;;;;;;5021037;28;20038;-52
2021/06/20 01:34:44;;;;;;;14.75;9.85;;;;;;;;;;5028887;28;20076;-50
2021/06/20 01:37:11;;;;;;;15.20;10.25;;;;;;;;;;5014056;28;20370;-51
2021/06/20 01:39:38;;;;;;;17.50;10.05;;;;;;;;;;5023062;28;20481;-54
2021/06/20 01:42:05;;;;;;;14.18;9.75;;;;;;;;;;5029621;28;20029;-50
2021/06/20 01:44:31;;;;;;;16.08;10.40;;;;;;;;;;5028286;28;20069;-49
2021/06/20 01:46:57;;;;;;;17.02;10.30;;;;;;;;;;5005886;28;20494;-52
2021/06/20 01:49:23;;;;;;;14.88;9.73;;;;;;;;;;5023712;28;20064;-49
2021/06/20 01:51:50;;;;;;;14.70;9.90;;;;;;;;;;5034410;28;20465;-51
2021/06/20 01:54:16;;;;;;;14.57;10.23;;;;;;;;;;5027781;28;20025;-50
2021/06/20 01:56:42;;;;;;;16.55;10.63;;;;;;;;;;5032476;28;20143;-50
2021/06/20 01:59:08;;;;;;;11.60;8.90;;;;;;;;;;5014846;28;20409;-50
2021/06/20 02:01:34;;;;;;;15.93;10.00;;;;;;;;;;5015127;28;20068;-50
2021/06/20 02:04:00;;;;;;;12.65;9.80;;;;;;;;;;5019340;28;20779;-52
2021/06/20 02:06:26;;;;;;;11.45;9.32;;;;;;;;;;5030247;28;20057;-52
2021/06/20 02:08:52;;;;;;;12.90;9.38;;;;;;;;;;5029437;28;20036;-51
2021/06/20 02:11:18;;;;;;;13.98;9.90;;;;;;;;;;5034138;28;20037;-49
2021/06/20 02:13:44;;;;;;;15.45;9.32;;;;;;;;;;5023682;28;20029;-50
2021/06/20 02:16:10;;;;;;;14.05;9.85;;;;;;;;;;5019483;28;20029;-51
2021/06/20 02:18:36;;;;;;;12.98;9.80;;;;;;;;;;5022388;28;20061;-49
2021/06/20 02:21:02;;;;;;;14.02;9.82;;;;;;;;;;5024487;28;20490;-53
2021/06/20 02:23:28;;;;;;;12.20;9.80;;;;;;;;;;5028750;28;20065;-50
2021/06/20 02:25:54;;;;;;;13.50;10.10;;;;;;;;;;5014979;28;20026;-50
2021/06/20 02:28:20;;;;;;;12.55;10.00;;;;;;;;;;5021041;28;20034;-52
2021/06/20 02:30:47;;;;;;;19.95;11.10;;;;;;;;;;5016329;28;20049;-51
2021/06/20 02:33:14;;;;;;;15.13;10.48;;;;;;;;;;5014385;28;20145;-50
2021/06/20 02:35:40;;;;;;;14.82;10.90;;;;;;;;;;5017476;28;20026;-51
2021/06/20 02:38:06;;;;;;;14.43;10.93;;;;;;;;;;5018489;28;20033;-49
2021/06/20 02:40:32;;;;;;;15.65;10.57;;;;;;;;;;5023670;28;20105;-50
2021/06/20 02:42:58;;;;;;;12.98;10.82;;;;;;;;;;5027405;28;20029;-50
2021/06/20 02:45:24;;;;;;;11.13;9.65;;;;;;;;;;5022116;28;20034;-50
2021/06/20 02:47:50;;;;;;;11.98;10.07;;;;;;;;;;5030029;28;20024;-53
2021/06/20 02:50:17;;;;;;;15.82;11.35;;;;;;;;;;5033652;28;20048;-50
2021/06/20 02:52:44;;;;;;;14.73;10.98;;;;;;;;;;5030619;28;20338;-52
2021/06/20 02:55:10;;;;;;;16.23;11.32;;;;;;;;;;5031071;28;20385;-50
2021/06/20 02:57:36;;;;;;;15.07;10.80;;;;;;;;;;5019358;28;20459;-50
2021/06/20 03:00:04;;;;;;;16.45;11.00;;;;;;;;;;5015529;28;20457;-49
2021/06/20 03:02:31;;;;;;;17.60;11.00;;;;;;;;;;5014083;28;20030;-50
2021/06/20 03:04:57;;;;;;;16.30;11.52;;;;;;;;;;5020550;28;20087;-50
2021/06/20 03:07:23;;;;;;;14.18;10.52;;;;;;;;;;5024653;28;20370;-49
2021/06/20 03:09:50;;;;;;;13.20;10.90;;;;;;;;;;5033037;28;20022;-50
2021/06/20 03:12:16;;;;;;;14.18;11.70;;;;;;;;;;5023752;28;20037;-52
2021/06/20 03:14:42;;;;;;;16.38;11.10;;;;;;;;;;5019682;28;20068;-52
2021/06/20 03:17:13;;;;;;;19.40;11.75;;;;;;;;;;5024127;28;20056;-50
2021/06/20 03:19:40;;;;;;;15.70;10.85;;;;;;;;;;5032374;28;20052;-49
2021/06/20 03:22:06;;;;;;;15.13;10.20;;;;;;;;;;5014111;28;20129;-50
2021/06/20 03:24:34;;;;;;;14.65;11.32;;;;;;;;;;5015120;28;20034;-50
2021/06/20 03:27:00;;;;;;;16.95;10.68;;;;;;;;;;5014324;28;20030;-50
2021/06/20 03:29:26;;;;;;;15.07;10.60;;;;;;;;;;5016670;28;20021;-52
2021/06/20 03:31:57;;;;;;;12.98;10.85;;;;;;;;;;5143186;27;20155;-49
2021/06/20 03:34:23;;;;;;;14.13;11.00;;;;;;;;;;5128598;28;20027;-49
2021/06/20 03:36:49;;;;;;;12.18;10.77;;;;;;;;;;5129508;28;20051;-48
2021/06/20 03:39:15;;;;;;;14.40;11.35;;;;;;;;;;5129832;28;20020;-49
2021/06/20 03:41:43;;;;;;;15.93;11.00;;;;;;;;;;5128267;28;20027;-47
2021/06/20 03:44:09;;;;;;;15.93;11.98;;;;;;;;;;5119231;28;20038;-49
2021/06/20 03:46:35;;;;;;;16.02;11.25;;;;;;;;;;5121471;28;20333;-49
2021/06/20 03:49:02;;;;;;;19.38;11.90;;;;;;;;;;5117606;28;20100;-52
2021/06/20 03:51:28;;;;;;;13.48;11.25;;;;;;;;;;5111545;28;20608;-50
2021/06/20 03:53:54;;;;;;;12.23;10.80;;;;;;;;;;5126619;28;20067;-50
2021/06/20 03:56:20;;;;;;;14.35;11.40;;;;;;;;;;5129100;28;20032;-54
2021/06/20 03:58:46;;;;;;;18.15;11.60;;;;;;;;;;5111944;28;20028;-52
2021/06/20 04:01:12;;;;;;;16.48;11.52;;;;;;;;;;5113676;28;20031;-50
2021/06/20 04:03:38;;;;;;;14.48;10.70;;;;;;;;;;5122586;28;20016;-51
2021/06/20 04:06:04;;;;;;;17.70;11.82;;;;;;;;;;5126588;27;20035;-50
2021/06/20 04:08:30;;;;;;;18.38;11.77;;;;;;;;;;5121474;28;20050;-52
2021/06/20 04:10:56;;;;;;;13.57;11.60;;;;;;;;;;5128455;28;20031;-50
2021/06/20 04:13:22;;;;;;;14.25;10.50;;;;;;;;;;5129032;28;20029;-50
2021/06/20 04:15:48;;;;;;;19.15;11.90;;;;;;;;;;5124235;28;20110;-50
2021/06/20 04:18:14;;;;;;;12.52;10.70;;;;;;;;;;5120315;28;20023;-51
2021/06/20 04:20:40;;;;;;;21.05;11.85;;;;;;;;;;5113933;28;20066;-51
2021/06/20 04:23:06;;;;;;;17.10;12.15;;;;;;;;;;5128591;28;20078;-51
2021/06/20 04:25:32;;;;;;;16.15;11.23;;;;;;;;;;5128652;28;20515;-51
2021/06/20 04:27:59;;;;;;;19.02;12.85;;;;;;;;;;5128549;28;20066;-50
2021/06/20 04:30:25;;;;;;;15.27;11.55;;;;;;;;;;5106859;28;20051;-51
2021/06/20 04:32:52;;;;;;;18.80;12.18;;;;;;;;;;5124711;28;20031;-50
2021/06/20 04:35:19;;;;;;;15.50;11.23;;;;;;;;;;5124204;27;20075;-51
2021/06/20 04:37:45;;;;;;;17.27;11.43;;;;;;;;;;5126799;28;20038;-52
2021/06/20 04:40:16;;;;;;;21.73;12.45;;;;;;;;;;5110838;28;20110;-51
2021/06/20 04:42:43;;;;;;;13.85;11.57;;;;;;;;;;5115363;28;20372;-51
2021/06/20 04:45:10;;;;;;;19.45;11.75;;;;;;;;;;5111781;28;20442;-50
2021/06/20 04:47:36;;;;;;;12.43;10.85;;;;;;;;;;5110539;28;20031;-50
2021/06/20 04:50:04;;;;;;;12.73;11.05;;;;;;;;;;5102531;28;20543;-50
2021/06/20 04:52:30;;;;;;;17.83;11.98;;;;;;;;;;5113663;28;20047;-51
2021/06/20 04:54:56;;;;;;;14.60;11.57;;;;;;;;;;5100945;28;20055;-51
2021/06/20 04:57:29;;;;;;;15.98;11.88;;;;;;;;;;5113892;28;20366;-50
2021/06/20 04:59:57;;;;;;;16.50;13.35;;;;;;;;;;5094864;28;20039;-51
2021/06/20 05:02:23;;;;;;;18.02;11.50;;;;;;;;;;5108967;28;20088;-51
2021/06/20 05:04:49;;;;;;;16.77;12.60;;;;;;;;;;5106386;28;20077;-52
2021/06/20 05:07:15;;;;;;;19.48;12.48;;;;;;;;;;5111880;28;20619;-52
2021/06/20 05:09:42;;;;;;;17.92;12.00;;;;;;;;;;5114434;28;20035;-51
2021/06/20 05:12:08;;;;;;;14.35;11.30;;;;;;;;;;5114718;28;20020;-54
2021/06/20 05:14:35;;;;;;;15.23;11.73;;;;;;;;;;5110104;28;20028;-50
2021/06/20 05:17:01;;;;;;;18.20;13.02;;;;;;;;;;5110526;28;20606;-51
2021/06/20 05:19:27;;;;;;;16.33;12.38;;;;;;;;;;5109196;28;20020;-51
2021/06/20 05:21:53;;;;;;;14.15;11.10;;;;;;;;;;5113864;28;20076;-50
2021/06/20 05:24:19;;;;;;;12.73;11.15;;;;;;;;;;5114187;28;20024;-50
2021/06/20 05:26:45;;;;;;;16.00;11.15;;;;;;;;;;5107076;28;20031;-50
2021/06/20 05:29:12;;;;;;;12.68;11.32;;;;;;;;;;5114008;28;20045;-51
2021/06/20 05:31:38;;;;;;;21.77;12.18;;;;;;;;;;5113526;28;20444;-51
2021/06/20 05:34:04;;;;;;;15.20;11.52;;;;;;;;;;5111705;28;20028;-50
2021/06/20 05:36:30;;;;;;;21.85;12.90;;;;;;;;;;5110683;28;20024;-50
2021/06/20 05:38:56;;;;;;;17.38;12.18;;;;;;;;;;5112052;28;20031;-52
2021/06/20 05:41:23;;;;;;;18.02;12.88;;;;;;;;;;5113982;28;20024;-50
2021/06/20 05:43:49;;;;;;;11.95;10.65;;;;;;;;;;5104527;28;20024;-52
2021/06/20 05:46:17;;;;;;;14.00;11.63;;;;;;;;;;5111521;28;20038;-51
2021/06/20 05:48:43;;;;;;;17.42;11.95;;;;;;;;;;5100327;28;20494;-50
2021/06/20 05:51:09;;;;;;;13.82;11.32;;;;;;;;;;5109210;28;20028;-51
2021/06/20 05:53:35;;;;;;;13.40;11.15;;;;;;;;;;5105417;28;20432;-50
2021/06/20 05:56:01;;;;;;;16.02;12.65;;;;;;;;;;5110230;28;20019;-50
2021/06/20 05:58:27;;;;;;;15.77;12.98;;;;;;;;;;5108733;28;20020;-50
2021/06/20 06:00:53;;;;;;;17.13;12.30;;;;;;;;;;5108890;28;20031;-50
2021/06/20 06:03:19;;;;;;;15.82;12.48;;;;;;;;;;5111116;28;20024;-51
2021/06/20 06:05:45;;;;;;;17.52;13.35;;;;;;;;;;5104824;28;20031;-53
2021/06/20 06:08:11;;;;;;;16.70;12.20;;;;;;;;;;5105305;28;20349;-51
2021/06/20 06:10:37;;;;;;;13.65;12.18;;;;;;;;;;5104229;28;20028;-53
2021/06/20 06:13:03;;;;;;;21.55;12.13;;;;;;;;;;5113184;28;20028;-51
2021/06/20 06:15:30;;;;;;;16.15;12.90;;;;;;;;;;5112143;28;20023;-51
2021/06/20 06:17:56;;;;;;;16.60;13.68;;;;;;;;;;5101962;28;20035;-50
2021/06/20 06:20:23;;;;;;;18.77;13.32;;;;;;;;;;5104584;28;20359;-52
2021/06/20 06:22:49;;;;;;;17.15;13.25;;;;;;;;;;5102565;28;20061;-51
2021/06/20 06:25:15;;;;;;;16.73;12.68;;;;;;;;;;5112702;28;20103;-52
2021/06/20 06:27:42;;;;;;;17.05;12.02;;;;;;;;;;5109119;28;20452;-50
2021/06/20 06:30:09;;;;;;;22.95;13.02;;;;;;;;;;5111335;28;20043;-51
2021/06/20 06:32:36;;;;;;;17.23;13.85;;;;;;;;;;5107082;28;20031;-53
2021/06/20 06:35:02;;;;;;;16.27;13.18;;;;;;;;;;5113414;28;20395;-53
2021/06/20 06:37:28;;;;;;;17.45;13.10;;;;;;;;;;5110976;28;20024;-52
2021/06/20 06:39:53;;;;;;;17.58;13.20;;;;;;;;;;5102830;28;20039;-52
2021/06/20 06:42:25;;;;;;;16.45;12.73;;;;;;;;;;5101529;28;20081;-50
2021/06/20 06:44:51;;;;;;;15.40;12.82;;;;;;;;;;5102408;28;20553;-51
2021/06/20 06:47:17;;;;;;;17.85;12.70;;;;;;;;;;5108925;28;20054;-52
2021/06/20 06:49:43;;;;;;;19.85;13.00;;;;;;;;;;5107369;28;20020;-52
2021/06/20 06:52:09;;;;;;;15.68;12.82;;;;;;;;;;5104281;28;20020;-52
2021/06/20 06:54:35;;;;;;;14.43;11.75;;;;;;;;;;5097050;28;20019;-51
2021/06/20 06:57:01;;;;;;;17.65;12.18;;;;;;;;;;5105699;28;20047;-56
2021/06/20 06:59:27;;;;;;;15.75;11.70;;;;;;;;;;5097138;28;20091;-53
2021/06/20 07:01:53;;;;;;;14.13;11.55;;;;;;;;;;5110986;28;20051;-54
2021/06/20 07:04:19;;;;;;;15.55;12.18;;;;;;;;;;5101256;28;20380;-54
2021/06/20 07:06:45;;;;;;;16.98;11.95;;;;;;;;;;5107234;28;20070;-53
2021/06/20 07:09:11;;;;;;;15.73;11.75;;;;;;;;;;5097478;28;20467;-53
2021/06/20 07:11:37;;;;;;;17.48;12.48;;;;;;;;;;5106587;28;20065;-51
2021/06/20 07:14:03;;;;;;;16.05;11.82;;;;;;;;;;5107047;28;20024;-52
2021/06/20 07:16:29;;;;;;;16.90;10.75;;;;;;;;;;5103667;28;20012;-54
2021/06/20 07:18:55;;;;;;;14.05;12.23;;;;;;;;;;5095487;28;20124;-51
2021/06/20 07:21:21;;;;;;;20.45;11.55;;;;;;;;;;5107717;28;20028;-52
2021/06/20 07:23:47;;;;;;;14.82;12.07;;;;;;;;;;5103865;28;20012;-52
2021/06/20 07:26:13;;;;;;;14.75;10.90;;;;;;;;;;5105229;28;20036;-53
2021/06/20 07:28:39;;;;;;;18.70;12.60;;;;;;;;;;5105885;28;20028;-56
2021/06/20 07:31:05;;;;;;;18.45;11.98;;;;;;;;;;5104680;28;20039;-54
2021/06/20 07:33:31;;;;;;;14.13;10.48;;;;;;;;;;5110424;28;20457;-52
2021/06/20 07:35:57;;;;;;;17.60;12.20;;;;;;;;;;5109396;28;20050;-51
2021/06/20 07:38:24;;;;;;;17.83;12.02;;;;;;;;;;5099830;28;20020;-51
2021/06/20 07:40:50;;;;;;;14.35;11.15;;;;;;;;;;5111732;28;20032;-52
2021/06/20 07:43:16;;;;;;;16.63;12.73;;;;;;;;;;5108688;28;20057;-52
2021/06/20 07:45:42;;;;;;;14.32;12.23;;;;;;;;;;5096141;28;20028;-52
2021/06/20 07:48:11;;;;;;;17.63;12.95;;;;;;;;;;5110113;28;20035;-53
2021/06/20 07:50:38;;;;;;;20.63;11.77;;;;;;;;;;5101726;28;20024;-51
2021/06/20 07:53:04;;;;;;;14.45;11.95;;;;;;;;;;5073886;28;20036;-51
2021/06/20 07:55:30;;;;;;;17.45;13.00;;;;;;;;;;5104049;28;20108;-52
2021/06/20 07:57:56;;;;;;;17.30;12.18;;;;;;;;;;5109407;28;20024;-53
2021/06/20 08:00:22;;;;;;;15.18;11.35;;;;;;;;;;5101258;28;20036;-53
2021/06/20 08:02:48;;;;;;;18.05;12.35;;;;;;;;;;5104258;28;20042;-52
2021/06/20 08:05:15;;;;;;;17.15;12.35;;;;;;;;;;5103577;28;20035;-51
2021/06/20 08:07:41;;;;;;;17.48;11.93;;;;;;;;;;5098935;28;20031;-52
2021/06/20 08:10:08;;;;;;;17.13;11.40;;;;;;;;;;5098421;28;20031;-52
2021/06/20 08:12:34;;;;;;;17.17;12.02;;;;;;;;;;5104878;28;20115;-53
2021/06/20 08:15:00;;;;;;;17.10;12.88;;;;;;;;;;5103220;28;20055;-54
2021/06/20 08:17:26;;;;;;;17.27;12.10;;;;;;;;;;5086028;28;20042;-53
2021/06/20 08:19:52;;;;;;;13.95;11.27;;;;;;;;;;5104203;28;20383;-55
2021/06/20 08:22:19;;;;;;;17.60;12.02;;;;;;;;;;5104123;28;20127;-51
2021/06/20 08:24:46;;;;;;;18.40;12.75;;;;;;;;;;5105327;28;20371;-51
2021/06/20 08:27:12;;;;;;;15.80;12.90;;;;;;;;;;5107271;28;20022;-53
2021/06/20 08:29:39;;;;;;;17.25;12.65;;;;;;;;;;5105084;28;20034;-52
2021/06/20 08:32:05;;;;;;;15.63;12.65;;;;;;;;;;5105152;28;20054;-55
2021/06/20 08:34:32;;;;;;;14.60;11.85;;;;;;;;;;5105993;28;20457;-55
2021/06/20 08:36:58;;;;;;;17.33;12.13;;;;;;;;;;5103568;28;20080;-52
2021/06/20 08:39:24;;;;;;;13.05;10.70;;;;;;;;;;5102374;28;20039;-54
2021/06/20 08:41:50;;;;;;;11.55;10.30;;;;;;;;;;5108783;28;20024;-53
2021/06/20 08:44:27;;;;;;;15.45;10.82;;;;;;;;;;5114752;28;20127;-52
2021/06/20 08:46:53;;;;;;;18.08;10.82;;;;;;;;;;5106987;28;20030;-52
2021/06/20 08:49:20;;;;;;;10.85;9.32;;;;;;;;;;5094886;28;20051;-52
2021/06/20 08:51:47;;;;;;;11.75;9.02;;;;;;;;;;5110184;28;20474;-55
2021/06/20 08:54:14;;;;;;;10.23;9.20;;;;;;;;;;5113779;28;20560;-51
2021/06/20 08:56:40;;;;;;;12.27;10.00;;;;;;;;;;5113879;28;20034;-53
2021/06/20 08:59:07;;;;;;;15.07;9.50;;;;;;;;;;5114378;28;20150;-51
2021/06/20 09:01:36;;;;;;;11.48;9.18;;;;;;;;;;5113885;28;20107;-51
2021/06/20 09:04:02;;;;;;;11.35;9.73;;;;;;;;;;5110124;28;20085;-52
2021/06/20 09:06:28;;;;;;;11.32;8.48;;;;;;;;;;5110742;28;20123;-51
2021/06/20 09:08:55;;;;;;;10.73;8.95;;;;;;;;;;5112852;28;20038;-51
2021/06/20 09:11:31;;;;;;;14.27;8.23;;;;;;;;;;5113765;28;20042;-52
2021/06/20 09:14:16;;;;;;;9.88;7.93;;;;;;;;;;5110808;28;20035;-53
2021/06/20 09:16:49;;;;;;;15.48;8.13;;;;;;;;;;5101468;28;20102;-51
2021/06/20 09:19:15;;;;;;;11.07;8.18;;;;;;;;;;5107429;28;20526;-53
2021/06/20 09:21:52;;;;;;;9.65;8.18;;;;;;;;;;5114270;28;20115;-52
2021/06/20 09:24:19;;;;;;;8.88;7.53;;;;;;;;;;5093288;28;20020;-53
2021/06/20 09:26:44;;;;;;;13.70;7.95;;;;;;;;;;5110695;28;20016;-52
2021/06/20 09:29:11;;;;;;;10.23;8.77;;;;;;;;;;5109053;28;20054;-56
2021/06/20 09:31:47;;;;;;;9.68;8.05;;;;;;;;;;5108671;28;20173;-54
2021/06/20 09:34:13;;;;;;;11.38;8.38;;;;;;;;;;5114438;28;20027;-51
2021/06/20 09:36:39;;;;;;;9.40;8.05;;;;;;;;;;5112711;28;20099;-57
2021/06/20 09:39:17;;;;;;;10.80;9.07;;;;;;;;;;5110689;28;20096;-53
2021/06/20 09:41:43;;;;;;;12.50;8.40;;;;;;;;;;5105889;28;20157;-51
2021/06/20 09:44:09;;;;;;;10.65;8.25;;;;;;;;;;5114089;28;20512;-53
2021/06/20 09:46:35;;;;;;;9.77;8.18;;;;;;;;;;5113610;28;20107;-53
2021/06/20 09:49:01;;;;;;;14.30;8.18;;;;;;;;;;5114153;28;20024;-52
2021/06/20 09:51:29;;;;;;;12.70;8.23;;;;;;;;;;5102806;28;20028;-56
2021/06/20 09:53:55;;;;;;;12.98;8.50;;;;;;;;;;5112892;28;20035;-51
2021/06/20 09:56:22;;;;;;;10.05;7.50;;;;;;;;;;5113742;28;20028;-55
2021/06/20 09:59:09;;;;;;;11.50;7.18;;;;;;;;;;5113785;28;20019;-52
2021/06/20 10:01:37;;;;;;;12.25;7.25;;;;;;;;;;5113918;28;20359;-52
2021/06/20 10:04:03;;;;;;;13.98;7.82;;;;;;;;;;5113647;28;20125;-50
2021/06/20 10:06:29;;;;;;;22.27;8.10;;;;;;;;;;5113490;28;20028;-52
2021/06/20 10:08:56;;;;;;;16.52;7.03;;;;;;;;;;5109450;28;20027;-51
2021/06/20 10:11:22;;;;;;;14.43;8.00;;;;;;;;;;5113565;28;20036;-48
2021/06/20 10:13:48;;;;;;;10.07;7.07;;;;;;;;;;5113619;28;20023;-49
2021/06/20 10:16:17;;;;;;;20.58;8.20;;;;;;;;;;5111457;28;20024;-48
2021/06/20 10:18:48;;;;;;;14.68;7.70;;;;;;;;;;5100794;28;20024;-51
2021/06/20 10:21:14;;;;;;;16.13;7.88;;;;;;;;;;5103486;28;20635;-52
2021/06/20 10:23:40;;;;;;;14.63;7.85;;;;;;;;;;5101271;28;20076;-51
2021/06/20 10:26:06;;;;;;;15.43;7.15;;;;;;;;;;5106859;28;20023;-53
2021/06/20 10:28:32;;;;;;;16.00;7.90;;;;;;;;;;5112950;28;20107;-51
2021/06/20 10:31:07;;;;;;;17.50;7.25;;;;;;;;;;5113134;28;20367;-51
2021/06/20 10:33:34;;;;;;;15.48;7.05;;;;;;;;;;5103335;28;20101;-55
2021/06/20 10:36:03;;;;;;;14.27;7.30;;;;;;;;;;5110755;28;20023;-51
2021/06/20 10:38:39;;;;;;;13.73;6.72;;;;;;;;;;5105129;28;20058;-51
2021/06/20 10:41:06;;;;;;;17.65;6.65;;;;;;;;;;5103164;28;20375;-53
2021/06/20 10:43:31;;;;;;;16.27;7.07;;;;;;;;;;5106958;28;20459;-51
2021/06/20 10:45:58;;;;;;;15.80;6.40;;;;;;;;;;5098461;28;20173;-57
2021/06/20 10:48:25;;;;;;;18.00;7.70;;;;;;;;;;5079930;28;20471;-55
2021/06/20 10:50:52;;;;;;;13.98;6.03;;;;;;;;;;5106900;28;20526;-51
2021/06/20 10:53:18;;;;;;;19.30;6.88;;;;;;;;;;5111823;28;20022;-52
2021/06/20 10:55:49;;;;;;;15.52;6.00;;;;;;;;;;5105828;28;20452;-51
2021/06/20 10:58:23;;;;;;;19.95;6.05;;;;;;;;;;5104115;28;20019;-54
2021/06/20 11:00:50;;;;;;;18.58;5.22;;;;;;;;;;5110513;28;20019;-52
2021/06/20 11:03:26;;;;;;;15.35;5.88;;;;;;;;;;5102627;28;20062;-57
2021/06/20 11:05:56;;;;;;;17.52;5.93;;;;;;;;;;5102505;28;20036;-52
2021/06/20 11:08:29;;;;;;;16.48;5.22;;;;;;;;;;5109490;28;20490;-53
2021/06/20 11:11:10;;;;;;;18.38;5.47;;;;;;;;;;5110340;28;20379;-51
2021/06/20 11:13:37;;;;;;;15.00;5.55;;;;;;;;;;5108626;28;20099;-52
2021/06/20 11:16:07;;;;;;;12.50;5.38;;;;;;;;;;5109819;28;20135;-52
2021/06/20 11:18:33;;;;;;;17.15;5.15;;;;;;;;;;5085358;28;20028;-54
2021/06/20 11:20:59;;;;;;;26.33;5.35;;;;;;;;;;5111345;28;20028;-51
2021/06/20 11:23:30;;;;;;;15.90;5.82;;;;;;;;;;5101669;28;20106;-52
2021/06/20 11:25:56;;;;;;;14.60;4.68;;;;;;;;;;5102228;28;20367;-51
2021/06/20 11:28:22;;;;;;;18.63;4.93;;;;;;;;;;5105572;28;20031;-52
2021/06/20 11:30:49;;;;;;;16.27;5.38;;;;;;;;;;5100296;28;20054;-51
2021/06/20 11:33:26;;;;;;;14.82;5.50;;;;;;;;;;5111620;28;20027;-50
2021/06/20 11:35:52;;;;;;;16.45;5.25;;;;;;;;;;5107314;28;20032;-49
2021/06/20 11:38:31;;;;;;;20.02;5.35;;;;;;;;;;5112096;28;20034;-51
2021/06/20 11:41:08;;;;;;;16.85;5.32;;;;;;;;;;5106818;28;20024;-51
2021/06/20 11:43:34;;;;;;;17.20;5.38;;;;;;;;;;5098154;28;20074;-51
2021/06/20 11:46:00;;;;;;;15.68;5.25;;;;;;;;;;5099492;28;20055;-56
2021/06/20 11:48:26;;;;;;;11.50;4.68;;;;;;;;;;5098858;28;20126;-51
2021/06/20 11:50:54;;;;;;;12.88;4.35;;;;;;;;;;5101383;28;20486;-51
2021/06/20 11:53:21;;;;;;;12.30;4.60;;;;;;;;;;5112496;28;20031;-51
2021/06/20 11:55:51;;;;;;;7.72;4.05;;;;;;;;;;5110588;28;20474;-51
2021/06/20 11:58:17;;;;;;;14.52;4.65;;;;;;;;;;5106843;28;20089;-51
2021/06/20 12:00:45;;;;;;;12.30;5.10;;;;;;;;;;5108945;28;20028;-49
2021/06/20 12:03:12;;;;;;;9.65;4.80;;;;;;;;;;5115551;28;20035;-49
2021/06/20 12:05:46;;;;;;;13.90;4.45;;;;;;;;;;5101333;28;20085;-50
2021/06/20 12:08:13;;;;;;;19.38;4.43;;;;;;;;;;5106412;28;20093;-48
2021/06/20 12:10:40;;;;;;;10.88;4.00;;;;;;;;;;5115333;28;20055;-51
2021/06/20 12:13:07;;;;;;;11.20;3.90;;;;;;;;;;5105333;28;20028;-51
2021/06/20 12:15:35;;;;;;;17.88;3.85;;;;;;;;;;5097763;28;20031;-49
2021/06/20 12:18:04;;;;;;;14.98;4.47;;;;;;;;;;5111479;28;20106;-49
2021/06/20 12:20:31;;;;;;;10.18;4.35;;;;;;;;;;5115890;28;20028;-53
2021/06/20 12:22:58;;;;;;;11.25;4.22;;;;;;;;;;5115341;28;20028;-50
2021/06/20 12:25:24;;;;;;;18.02;4.18;;;;;;;;;;5114915;28;20024;-52
2021/06/20 12:27:50;;;;;;;8.73;4.07;;;;;;;;;;5114948;28;20050;-51
2021/06/20 12:30:20;;;;;;;9.95;3.42;;;;;;;;;;5115126;28;20131;-50
2021/06/20 12:32:47;;;;;;;10.13;4.38;;;;;;;;;;5114457;28;20076;-49
2021/06/20 12:35:20;;;;;;;9.80;3.65;;;;;;;;;;5101905;28;20502;-53
2021/06/20 12:37:46;;;;;;;9.35;3.85;;;;;;;;;;5104352;28;20061;-50
2021/06/20 12:40:14;;;;;;;11.63;3.75;;;;;;;;;;5110291;28;20028;-52
2021/06/20 12:42:44;;;;;;;8.10;4.13;;;;;;;;;;5094523;28;20060;-52
2021/06/20 12:45:30;;;;;;;9.00;3.55;;;;;;;;;;5103666;28;20027;-50
2021/06/20 12:47:57;;;;;;;10.70;4.18;;;;;;;;;;5105267;28;20036;-51
2021/06/20 12:50:33;;;;;;;10.02;4.03;;;;;;;;;;5102786;28;20389;-50
2021/06/20 12:53:00;;;;;;;10.85;3.80;;;;;;;;;;5114557;28;20023;-49
2021/06/20 12:55:29;;;;;;;7.70;3.42;;;;;;;;;;5115697;28;20027;-52
2021/06/20 12:57:59;;;;;;;8.40;3.70;;;;;;;;;;5115461;28;20451;-51
2021/06/20 13:00:27;;;;;;;11.07;4.07;;;;;;;;;;5110826;28;20018;-50
2021/06/20 13:02:53;;;;;;;16.23;3.67;;;;;;;;;;5107564;28;20039;-51
2021/06/20 13:05:34;;;;;;;18.67;4.18;;;;;;;;;;5106088;28;20032;-54
2021/06/20 13:08:00;;;;;;;9.95;3.45;;;;;;;;;;5106741;28;20085;-52
2021/06/20 13:10:26;;;;;;;5.82;3.30;;;;;;;;;;5112702;28;20089;-53
2021/06/20 13:12:52;;;;;;;7.47;3.05;;;;;;;;;;5109488;28;20035;-53
2021/06/20 13:15:19;;;;;;;9.73;3.10;;;;;;;;;;5111631;28;20502;-51
2021/06/20 13:17:45;;;;;;;9.63;3.17;;;;;;;;;;5087024;28;20019;-54
2021/06/20 13:20:12;;;;;;;8.18;2.55;;;;;;;;;;5105917;28;20115;-55
2021/06/20 13:22:39;;;;;;;8.23;3.03;;;;;;;;;;5095384;28;20114;-53
2021/06/20 13:25:05;;;;;;;8.10;2.80;;;;;;;;;;5107616;28;20020;-53
2021/06/20 13:27:32;;;;;;;10.45;2.92;;;;;;;;;;5112960;28;20062;-51
2021/06/20 13:29:58;;;;;;;9.20;2.75;;;;;;;;;;5112046;28;20130;-51
2021/06/20 13:32:24;;;;;;;7.50;2.65;;;;;;;;;;5090010;28;20024;-54
2021/06/20 13:34:50;;;;;;;9.00;2.75;;;;;;;;;;5092110;28;20031;-54
2021/06/20 13:37:16;;;;;;;8.88;2.45;;;;;;;;;;5109775;28;20388;-51
2021/06/20 13:39:42;;;;;;;7.63;2.85;;;;;;;;;;5112731;28;20027;-55
2021/06/20 13:42:09;;;;;;;7.28;2.22;;;;;;;;;;5100922;28;20130;-52
2021/06/20 13:44:35;;;;;;;4.50;2.00;;;;;;;;;;5106933;28;20348;-54
2021/06/20 13:47:01;;;;;;;6.13;2.72;;;;;;;;;;5104947;28;20418;-51
2021/06/20 13:49:27;;;;;;;4.80;2.10;;;;;;;;;;5106840;28;20114;-50
2021/06/20 13:51:53;;;;;;;4.97;2.20;;;;;;;;;;5102129;28;20078;-54
2021/06/20 13:54:20;;;;;;;11.75;2.35;;;;;;;;;;5098610;28;20357;-54
2021/06/20 13:56:47;;;;;;;7.38;2.30;;;;;;;;;;5104978;28;20102;-52
2021/06/20 13:59:13;;;;;;;4.75;2.13;;;;;;;;;;5105288;28;20475;-52
2021/06/20 14:01:39;;;;;;;8.25;2.15;;;;;;;;;;5104165;28;20093;-54
2021/06/20 14:04:05;;;;;;;9.10;2.67;;;;;;;;;;5099669;28;20020;-54
2021/06/20 14:06:31;;;;;;;6.88;3.00;;;;;;;;;;5091767;28;20024;-52
2021/06/20 14:09:00;;;;;;;6.90;1.80;;;;;;;;;;5110188;28;20027;-55
2021/06/20 14:11:26;;;;;;;12.70;2.17;;;;;;;;;;5112697;28;20073;-54
2021/06/20 14:13:52;;;;;;;4.80;1.75;;;;;;;;;;5112665;28;20597;-53
2021/06/20 14:16:18;;;;;;;4.97;2.00;;;;;;;;;;5109504;28;20027;-56
2021/06/20 14:18:44;;;;;;;5.07;1.60;;;;;;;;;;5106168;28;20475;-55
2021/06/20 14:21:10;;;;;;;10.52;2.15;;;;;;;;;;5113281;28;20080;-54
2021/06/20 14:23:36;;;;;;;6.20;1.70;;;;;;;;;;5110924;28;20083;-55
2021/06/20 14:26:02;;;;;;;4.65;1.90;;;;;;;;;;5112606;28;20031;-51